SIA9567 WIPP-WIII
Flight info
| Callsign | SIA9567 |
|---|---|
| Flight time | 0h 46m |
| Altitude | 25000 |
| Route | UDOKO T5 BUNIK |
| Aircraft | A359/H-SDE2E3GHIJ3J4J5LM1ORWXY/LB1D1 |
Departure
| Time | 2026-04-28 08:30 |
|---|---|
| Airport | Sultan Mahmud Badaruddin II Airport (WIPP) |
Arrival
| Time | 2026-04-28 09:17 |
|---|---|
| Airport | Soekarno-Hatta International Airport (WIII) |
| Time | Latitude | Longitude | Altitude | Speed | Heading |
|---|---|---|---|---|---|
| 2026-04-28 08:05 | -2.89697 | 104.70589 | 57 ft | 0 kts | 20° |
| 2026-04-28 08:12 | -2.89701 | 104.70587 | 48 ft | 4 kts | 22° |
| 2026-04-28 08:13 | -2.89726 | 104.70576 | 48 ft | 4 kts | 24° |
| 2026-04-28 08:13 | -2.89751 | 104.70566 | 48 ft | 4 kts | 21° |
| 2026-04-28 08:13 | -2.89776 | 104.70556 | 48 ft | 4 kts | 21° |
| 2026-04-28 08:13 | -2.89800 | 104.70547 | 49 ft | 2 kts | 21° |
| 2026-04-28 08:14 | -2.89785 | 104.70553 | 49 ft | 4 kts | 21° |
| 2026-04-28 08:14 | -2.89697 | 104.70589 | 57 ft | 0 kts | 20° |
| 2026-04-28 08:20 | -2.89717 | 104.70581 | 48 ft | 4 kts | 27° |
| 2026-04-28 08:20 | -2.89742 | 104.70570 | 48 ft | 4 kts | 21° |
| 2026-04-28 08:20 | -2.89767 | 104.70560 | 48 ft | 4 kts | 21° |
| 2026-04-28 08:21 | -2.89792 | 104.70550 | 49 ft | 4 kts | 21° |
| 2026-04-28 08:21 | -2.89803 | 104.70545 | 49 ft | 4 kts | 21° |
| 2026-04-28 08:23 | -2.89770 | 104.70550 | 51 ft | 8 kts | 351° |
| 2026-04-28 08:23 | -2.89736 | 104.70505 | 50 ft | 9 kts | 295° |
| 2026-04-28 08:23 | -2.89706 | 104.70439 | 51 ft | 11 kts | 292° |
| 2026-04-28 08:24 | -2.89673 | 104.70357 | 56 ft | 14 kts | 292° |
| 2026-04-28 08:24 | -2.89643 | 104.70271 | 53 ft | 9 kts | 271° |
| 2026-04-28 08:24 | -2.89687 | 104.70231 | 51 ft | 10 kts | 210° |
| 2026-04-28 08:24 | -2.89725 | 104.70177 | 53 ft | 7 kts | 277° |
| 2026-04-28 08:25 | -2.89696 | 104.70093 | 52 ft | 23 kts | 292° |
| 2026-04-28 08:25 | -2.89629 | 104.69933 | 53 ft | 26 kts | 292° |
| 2026-04-28 08:25 | -2.89557 | 104.69763 | 55 ft | 27 kts | 293° |
| 2026-04-28 08:26 | -2.89485 | 104.69592 | 53 ft | 12 kts | 292° |
| 2026-04-28 08:26 | -2.89450 | 104.69508 | 54 ft | 14 kts | 292° |
| 2026-04-28 08:26 | -2.89407 | 104.69408 | 54 ft | 17 kts | 293° |
| 2026-04-28 08:26 | -2.89357 | 104.69292 | 55 ft | 19 kts | 292° |
| 2026-04-28 08:27 | -2.89308 | 104.69175 | 56 ft | 18 kts | 293° |
| 2026-04-28 08:27 | -2.89266 | 104.69058 | 55 ft | 17 kts | 272° |
| 2026-04-28 08:27 | -2.89317 | 104.68996 | 58 ft | 8 kts | 205° |
| 2026-04-28 08:27 | -2.89369 | 104.68962 | 55 ft | 10 kts | 230° |
| 2026-04-28 08:28 | -2.89360 | 104.68874 | 58 ft | 16 kts | 292° |
| 2026-04-28 08:28 | -2.89314 | 104.68765 | 59 ft | 18 kts | 293° |
| 2026-04-28 08:28 | -2.89265 | 104.68641 | 56 ft | 19 kts | 278° |
| 2026-04-28 08:28 | -2.89248 | 104.68552 | 57 ft | 4 kts | 326° |
| 2026-04-28 08:29 | -2.89237 | 104.68560 | 61 ft | 2 kts | 46° |
| 2026-04-28 08:29 | -2.89244 | 104.68599 | 55 ft | 10 kts | 109° |
| 2026-04-28 08:29 | -2.89247 | 104.68605 | 55 ft | 0 kts | 111° |
| 2026-04-28 08:30 | -2.89261 | 104.68640 | 57 ft | 24 kts | 112° |
| 2026-04-28 08:30 | -2.89463 | 104.69119 | 55 ft | 125 kts | 112° |
| 2026-04-28 08:30 | -2.89896 | 104.70163 | 388 ft | 181 kts | 111° |
| 2026-04-28 08:30 | -2.90367 | 104.71341 | 1484 ft | 187 kts | 110° |
| 2026-04-28 08:31 | -2.90849 | 104.72700 | 2299 ft | 222 kts | 107° |
| 2026-04-28 08:31 | -2.91314 | 104.74221 | 2967 ft | 238 kts | 106° |
| 2026-04-28 08:31 | -2.91818 | 104.75866 | 3523 ft | 254 kts | 107° |
| 2026-04-28 08:31 | -2.92356 | 104.77570 | 4339 ft | 259 kts | 107° |
| 2026-04-28 08:32 | -2.92913 | 104.79305 | 5157 ft | 264 kts | 108° |
| 2026-04-28 08:32 | -2.93479 | 104.81047 | 5989 ft | 268 kts | 108° |
| 2026-04-28 08:32 | -2.94061 | 104.82836 | 6784 ft | 272 kts | 108° |
| 2026-04-28 08:32 | -2.94655 | 104.84649 | 7613 ft | 276 kts | 108° |
| 2026-04-28 08:33 | -2.95377 | 104.86447 | 8439 ft | 281 kts | 118° |
| 2026-04-28 08:33 | -2.96452 | 104.88094 | 9345 ft | 285 kts | 125° |
| 2026-04-28 08:33 | -2.97631 | 104.89699 | 10155 ft | 289 kts | 126° |
| 2026-04-28 08:33 | -2.98867 | 104.91372 | 10642 ft | 308 kts | 126° |
| 2026-04-28 08:34 | -3.00178 | 104.93158 | 10986 ft | 327 kts | 126° |
| 2026-04-28 08:34 | -3.01560 | 104.95047 | 11331 ft | 345 kts | 126° |
| 2026-04-28 08:34 | -3.03009 | 104.97032 | 11728 ft | 359 kts | 126° |
| 2026-04-28 08:34 | -3.04494 | 104.99067 | 12289 ft | 366 kts | 126° |
| 2026-04-28 08:35 | -3.05983 | 105.01108 | 12926 ft | 370 kts | 126° |
| 2026-04-28 08:35 | -3.07511 | 105.03206 | 13549 ft | 375 kts | 125° |
| 2026-04-28 08:35 | -3.09056 | 105.05327 | 14111 ft | 379 kts | 126° |
| 2026-04-28 08:35 | -3.10622 | 105.07477 | 14686 ft | 382 kts | 126° |
| 2026-04-28 08:36 | -3.12194 | 105.09636 | 15252 ft | 385 kts | 126° |
| 2026-04-28 08:36 | -3.13760 | 105.11787 | 15802 ft | 388 kts | 126° |
| 2026-04-28 08:36 | -3.15358 | 105.13983 | 16362 ft | 391 kts | 126° |
| 2026-04-28 08:36 | -3.16966 | 105.16190 | 16888 ft | 395 kts | 126° |
| 2026-04-28 08:37 | -3.18590 | 105.18420 | 17435 ft | 398 kts | 126° |
| 2026-04-28 08:37 | -3.20228 | 105.20671 | 17964 ft | 401 kts | 126° |
| 2026-04-28 08:37 | -3.21878 | 105.22938 | 18435 ft | 404 kts | 126° |
| 2026-04-28 08:37 | -3.23538 | 105.25219 | 18894 ft | 407 kts | 126° |
| 2026-04-28 08:38 | -3.25261 | 105.27483 | 19364 ft | 410 kts | 130° |
| 2026-04-28 08:38 | -3.27274 | 105.29458 | 19822 ft | 412 kts | 139° |
| 2026-04-28 08:38 | -3.29478 | 105.31312 | 20295 ft | 415 kts | 140° |
| 2026-04-28 08:38 | -3.31709 | 105.33157 | 20772 ft | 417 kts | 140° |
| 2026-04-28 08:39 | -3.33955 | 105.35020 | 21254 ft | 420 kts | 140° |
| 2026-04-28 08:39 | -3.36208 | 105.36894 | 21728 ft | 423 kts | 140° |
| 2026-04-28 08:39 | -3.38479 | 105.38787 | 22212 ft | 426 kts | 140° |
| 2026-04-28 08:39 | -3.40769 | 105.40697 | 22694 ft | 429 kts | 140° |
| 2026-04-28 08:40 | -3.43041 | 105.42592 | 23175 ft | 431 kts | 140° |
| 2026-04-28 08:40 | -3.45356 | 105.44525 | 23591 ft | 434 kts | 140° |
| 2026-04-28 08:40 | -3.47689 | 105.46473 | 23968 ft | 437 kts | 140° |
| 2026-04-28 08:40 | -3.50035 | 105.48432 | 24321 ft | 441 kts | 140° |
| 2026-04-28 08:41 | -3.52404 | 105.50410 | 24657 ft | 443 kts | 140° |
| 2026-04-28 08:41 | -3.54782 | 105.52397 | 24767 ft | 449 kts | 140° |
| 2026-04-28 08:41 | -3.57188 | 105.54407 | 24795 ft | 462 kts | 140° |
| 2026-04-28 08:41 | -3.59694 | 105.56508 | 24791 ft | 474 kts | 140° |
| 2026-04-28 08:42 | -3.62236 | 105.58636 | 24792 ft | 477 kts | 140° |
| 2026-04-28 08:42 | -3.64790 | 105.60767 | 24793 ft | 477 kts | 140° |
| 2026-04-28 08:42 | -3.67343 | 105.62896 | 24780 ft | 477 kts | 140° |
| 2026-04-28 08:42 | -3.69889 | 105.65020 | 24781 ft | 477 kts | 140° |
| 2026-04-28 08:43 | -3.72436 | 105.67145 | 24798 ft | 477 kts | 140° |
| 2026-04-28 08:43 | -3.74986 | 105.69273 | 24797 ft | 477 kts | 140° |
| 2026-04-28 08:43 | -3.77536 | 105.71402 | 24797 ft | 477 kts | 140° |
| 2026-04-28 08:43 | -3.80080 | 105.73528 | 24798 ft | 476 kts | 140° |
| 2026-04-28 08:44 | -3.82628 | 105.75656 | 24800 ft | 476 kts | 140° |
| 2026-04-28 08:44 | -3.85174 | 105.77783 | 24799 ft | 477 kts | 140° |
| 2026-04-28 08:44 | -3.87716 | 105.79909 | 24800 ft | 477 kts | 140° |
| 2026-04-28 08:44 | -3.90260 | 105.82035 | 24803 ft | 477 kts | 140° |
| 2026-04-28 08:45 | -3.92778 | 105.84140 | 24799 ft | 477 kts | 140° |
| 2026-04-28 08:45 | -3.95323 | 105.86266 | 24803 ft | 477 kts | 140° |
| 2026-04-28 08:45 | -3.97871 | 105.88396 | 24802 ft | 477 kts | 140° |
| 2026-04-28 08:45 | -4.00424 | 105.90530 | 24801 ft | 477 kts | 140° |
| 2026-04-28 08:46 | -4.02968 | 105.92658 | 24804 ft | 477 kts | 140° |
| 2026-04-28 08:46 | -4.05515 | 105.94788 | 24807 ft | 477 kts | 140° |
| 2026-04-28 08:46 | -4.08066 | 105.96921 | 24804 ft | 477 kts | 140° |
| 2026-04-28 08:46 | -4.10615 | 105.99053 | 24808 ft | 477 kts | 140° |
| 2026-04-28 08:47 | -4.13167 | 106.01188 | 24803 ft | 477 kts | 140° |
| 2026-04-28 08:47 | -4.15723 | 106.03326 | 24806 ft | 477 kts | 140° |
| 2026-04-28 08:47 | -4.18272 | 106.05459 | 24806 ft | 477 kts | 140° |
| 2026-04-28 08:47 | -4.20785 | 106.07560 | 24807 ft | 477 kts | 140° |
| 2026-04-28 08:48 | -4.23336 | 106.09695 | 24809 ft | 477 kts | 140° |
| 2026-04-28 08:48 | -4.25894 | 106.11835 | 24809 ft | 477 kts | 140° |
| 2026-04-28 08:48 | -4.28442 | 106.13967 | 24810 ft | 477 kts | 140° |
| 2026-04-28 08:48 | -4.30985 | 106.16096 | 24810 ft | 477 kts | 140° |
| 2026-04-28 08:49 | -4.33535 | 106.18230 | 24809 ft | 477 kts | 140° |
| 2026-04-28 08:49 | -4.36081 | 106.20361 | 24811 ft | 477 kts | 140° |
| 2026-04-28 08:49 | -4.38634 | 106.22498 | 24811 ft | 477 kts | 140° |
| 2026-04-28 08:49 | -4.41184 | 106.24632 | 24808 ft | 477 kts | 140° |
| 2026-04-28 08:50 | -4.43735 | 106.26768 | 24814 ft | 477 kts | 140° |
| 2026-04-28 08:50 | -4.46281 | 106.28900 | 24811 ft | 477 kts | 140° |
| 2026-04-28 08:50 | -4.48832 | 106.31036 | 24813 ft | 477 kts | 140° |
| 2026-04-28 08:50 | -4.51380 | 106.33170 | 24813 ft | 477 kts | 140° |
| 2026-04-28 08:51 | -4.53925 | 106.35302 | 24813 ft | 477 kts | 140° |
| 2026-04-28 08:51 | -4.56469 | 106.37433 | 24814 ft | 477 kts | 140° |
| 2026-04-28 08:51 | -4.58995 | 106.39549 | 24812 ft | 477 kts | 140° |
| 2026-04-28 08:51 | -4.61539 | 106.41681 | 24814 ft | 477 kts | 140° |
| 2026-04-28 08:52 | -4.64089 | 106.43818 | 24813 ft | 477 kts | 140° |
| 2026-04-28 08:52 | -4.66637 | 106.45953 | 24812 ft | 477 kts | 140° |
| 2026-04-28 08:52 | -4.69190 | 106.48093 | 24812 ft | 477 kts | 140° |
| 2026-04-28 08:52 | -4.71736 | 106.50227 | 24813 ft | 477 kts | 140° |
| 2026-04-28 08:53 | -4.74280 | 106.52359 | 24814 ft | 477 kts | 140° |
| 2026-04-28 08:53 | -4.76830 | 106.54497 | 24816 ft | 477 kts | 140° |
| 2026-04-28 08:53 | -4.79379 | 106.56634 | 24816 ft | 477 kts | 140° |
| 2026-04-28 08:53 | -4.81653 | 106.58541 | 24816 ft | 477 kts | 140° |
| 2026-04-28 08:54 | -4.83310 | 106.59931 | 24814 ft | 477 kts | 140° |
| 2026-04-28 08:54 | -4.85915 | 106.61998 | 24811 ft | 478 kts | 146° |
| 2026-04-28 08:54 | -4.88828 | 106.63592 | 24817 ft | 477 kts | 154° |
| 2026-04-28 08:54 | -4.91853 | 106.64976 | 24811 ft | 477 kts | 155° |
| 2026-04-28 08:55 | -4.94885 | 106.66341 | 24811 ft | 478 kts | 155° |
| 2026-04-28 08:55 | -4.97911 | 106.67711 | 24814 ft | 478 kts | 155° |
| 2026-04-28 08:55 | -5.01920 | 106.69533 | 24815 ft | 478 kts | 155° |
| 2026-04-28 08:55 | -5.03967 | 106.70466 | 24813 ft | 478 kts | 155° |
| 2026-04-28 08:56 | -5.07002 | 106.71850 | 24810 ft | 478 kts | 155° |
| 2026-04-28 08:56 | -5.10026 | 106.73232 | 24813 ft | 478 kts | 155° |
| 2026-04-28 08:56 | -5.13054 | 106.74615 | 24811 ft | 476 kts | 155° |
| 2026-04-28 08:56 | -5.16010 | 106.75966 | 24807 ft | 458 kts | 155° |
| 2026-04-28 08:57 | -5.18844 | 106.77210 | 24814 ft | 446 kts | 159° |
| 2026-04-28 08:57 | -5.21811 | 106.78119 | 24539 ft | 444 kts | 167° |
| 2026-04-28 08:57 | -5.24883 | 106.78500 | 23711 ft | 448 kts | 179° |
| 2026-04-28 08:57 | -5.28003 | 106.78200 | 22639 ft | 455 kts | 192° |
| 2026-04-28 08:58 | -5.31015 | 106.77161 | 21604 ft | 461 kts | 206° |
| 2026-04-28 08:58 | -5.33753 | 106.75565 | 20641 ft | 448 kts | 211° |
| 2026-04-28 08:58 | -5.36373 | 106.73887 | 19932 ft | 446 kts | 211° |
| 2026-04-28 08:58 | -5.38954 | 106.72242 | 19275 ft | 426 kts | 211° |
| 2026-04-28 08:59 | -5.41392 | 106.70699 | 18674 ft | 408 kts | 211° |
| 2026-04-28 08:59 | -5.43811 | 106.69178 | 18045 ft | 412 kts | 211° |
| 2026-04-28 08:59 | -5.46250 | 106.67650 | 17352 ft | 411 kts | 211° |
| 2026-04-28 08:59 | -5.48671 | 106.66136 | 16713 ft | 408 kts | 211° |
| 2026-04-28 09:00 | -5.51066 | 106.64638 | 16079 ft | 404 kts | 211° |
| 2026-04-28 09:00 | -5.53460 | 106.63142 | 15443 ft | 405 kts | 211° |
| 2026-04-28 09:00 | -5.55828 | 106.61663 | 14817 ft | 405 kts | 211° |
| 2026-04-28 09:00 | -5.58219 | 106.60170 | 14180 ft | 404 kts | 211° |
| 2026-04-28 09:01 | -5.60609 | 106.58677 | 13518 ft | 404 kts | 211° |
| 2026-04-28 09:01 | -5.62993 | 106.57188 | 12809 ft | 402 kts | 211° |
| 2026-04-28 09:01 | -5.65351 | 106.55715 | 12163 ft | 398 kts | 211° |
| 2026-04-28 09:01 | -5.67705 | 106.54243 | 11500 ft | 395 kts | 211° |
| 2026-04-28 09:02 | -5.70023 | 106.52795 | 11024 ft | 387 kts | 211° |
| 2026-04-28 09:02 | -5.72258 | 106.51397 | 10874 ft | 369 kts | 211° |
| 2026-04-28 09:02 | -5.74384 | 106.50066 | 10761 ft | 352 kts | 211° |
| 2026-04-28 09:02 | -5.76415 | 106.48797 | 10641 ft | 336 kts | 211° |
| 2026-04-28 09:03 | -5.78359 | 106.47581 | 10514 ft | 322 kts | 211° |
| 2026-04-28 09:03 | -5.80221 | 106.46416 | 10390 ft | 309 kts | 211° |
| 2026-04-28 09:03 | -5.82012 | 106.45297 | 10265 ft | 298 kts | 211° |
| 2026-04-28 09:03 | -5.83747 | 106.44213 | 10123 ft | 290 kts | 211° |
| 2026-04-28 09:04 | -5.85457 | 106.43144 | 9869 ft | 292 kts | 211° |
| 2026-04-28 09:04 | -5.87190 | 106.42062 | 9601 ft | 300 kts | 211° |
| 2026-04-28 09:04 | -5.88962 | 106.40955 | 9320 ft | 297 kts | 211° |
| 2026-04-28 09:04 | -5.90672 | 106.39883 | 9082 ft | 279 kts | 211° |
| 2026-04-28 09:05 | -5.92269 | 106.38884 | 8727 ft | 264 kts | 210° |
| 2026-04-28 09:05 | -5.93796 | 106.37928 | 8366 ft | 251 kts | 211° |
| 2026-04-28 09:05 | -5.95270 | 106.37006 | 8239 ft | 249 kts | 210° |
| 2026-04-28 09:05 | -5.96737 | 106.36089 | 8109 ft | 248 kts | 210° |
| 2026-04-28 09:06 | -5.98204 | 106.35171 | 7998 ft | 248 kts | 210° |
| 2026-04-28 09:06 | -5.99664 | 106.34257 | 7831 ft | 248 kts | 210° |
| 2026-04-28 09:06 | -6.01130 | 106.33341 | 7607 ft | 247 kts | 210° |
| 2026-04-28 09:06 | -6.02581 | 106.32435 | 7349 ft | 245 kts | 210° |
| 2026-04-28 09:07 | -6.04093 | 106.31648 | 7081 ft | 243 kts | 196° |
| 2026-04-28 09:07 | -6.05721 | 106.31538 | 6849 ft | 237 kts | 171° |
| 2026-04-28 09:07 | -6.07344 | 106.31806 | 6653 ft | 237 kts | 167° |
| 2026-04-28 09:07 | -6.08958 | 106.32113 | 6433 ft | 236 kts | 167° |
| 2026-04-28 09:08 | -6.10575 | 106.32415 | 6224 ft | 236 kts | 167° |
| 2026-04-28 09:08 | -6.12182 | 106.32708 | 6021 ft | 234 kts | 168° |
| 2026-04-28 09:08 | -6.13780 | 106.32994 | 5850 ft | 234 kts | 168° |
| 2026-04-28 09:08 | -6.15371 | 106.33276 | 5716 ft | 228 kts | 168° |
| 2026-04-28 09:09 | -6.16905 | 106.33547 | 5630 ft | 219 kts | 168° |
| 2026-04-28 09:09 | -6.18362 | 106.33804 | 5563 ft | 206 kts | 168° |
| 2026-04-28 09:09 | -6.19741 | 106.34092 | 5288 ft | 199 kts | 161° |
| 2026-04-28 09:09 | -6.20871 | 106.34809 | 4989 ft | 195 kts | 129° |
| 2026-04-28 09:10 | -6.21658 | 106.35947 | 4918 ft | 200 kts | 120° |
| 2026-04-28 09:10 | -6.22385 | 106.37143 | 4854 ft | 200 kts | 120° |
| 2026-04-28 09:10 | -6.23108 | 106.38329 | 4804 ft | 195 kts | 121° |
| 2026-04-28 09:10 | -6.23622 | 106.39567 | 4526 ft | 192 kts | 94° |
| 2026-04-28 09:11 | -6.23480 | 106.40875 | 4356 ft | 194 kts | 75° |
| 2026-04-28 09:11 | -6.23037 | 106.42178 | 4308 ft | 198 kts | 69° |
| 2026-04-28 09:11 | -6.22544 | 106.43451 | 4178 ft | 191 kts | 69° |
| 2026-04-28 09:11 | -6.22064 | 106.44676 | 3982 ft | 186 kts | 69° |
| 2026-04-28 09:12 | -6.21585 | 106.45882 | 3734 ft | 185 kts | 69° |
| 2026-04-28 09:12 | -6.21111 | 106.47081 | 3477 ft | 185 kts | 69° |
| 2026-04-28 09:12 | -6.20637 | 106.48277 | 3237 ft | 183 kts | 69° |
| 2026-04-28 09:12 | -6.20166 | 106.49465 | 2995 ft | 182 kts | 69° |
| 2026-04-28 09:13 | -6.19698 | 106.50644 | 2760 ft | 182 kts | 69° |
| 2026-04-28 09:13 | -6.19236 | 106.51812 | 2534 ft | 181 kts | 68° |
| 2026-04-28 09:13 | -6.18770 | 106.52986 | 2298 ft | 181 kts | 69° |
| 2026-04-28 09:13 | -6.18305 | 106.54160 | 2049 ft | 180 kts | 68° |
| 2026-04-28 09:14 | -6.17848 | 106.55314 | 1817 ft | 171 kts | 68° |
| 2026-04-28 09:14 | -6.17428 | 106.56373 | 1615 ft | 156 kts | 67° |
| 2026-04-28 09:14 | -6.17042 | 106.57347 | 1415 ft | 144 kts | 67° |
| 2026-04-28 09:14 | -6.16682 | 106.58252 | 1234 ft | 136 kts | 67° |
| 2026-04-28 09:15 | -6.16337 | 106.59122 | 1065 ft | 133 kts | 66° |
| 2026-04-28 09:15 | -6.15990 | 106.59995 | 929 ft | 133 kts | 66° |
| 2026-04-28 09:15 | -6.15648 | 106.60860 | 761 ft | 135 kts | 68° |
| 2026-04-28 09:15 | -6.15298 | 106.61744 | 556 ft | 138 kts | 66° |
| 2026-04-28 09:16 | -6.14938 | 106.62639 | 394 ft | 138 kts | 65° |
| 2026-04-28 09:16 | -6.14588 | 106.63515 | 248 ft | 135 kts | 66° |
| 2026-04-28 09:16 | -6.14243 | 106.64384 | 104 ft | 133 kts | 65° |
| 2026-04-28 09:16 | -6.13901 | 106.65229 | 48 ft | 125 kts | 66° |
| 2026-04-28 09:17 | -6.13635 | 106.65900 | 45 ft | 81 kts | 68° |
| 2026-04-28 09:17 | -6.13483 | 106.66281 | 45 ft | 36 kts | 68° |
| 2026-04-28 09:17 | -6.13401 | 106.66483 | 46 ft | 30 kts | 65° |
| 2026-04-28 09:17 | -6.13274 | 106.66642 | 45 ft | 29 kts | 41° |
| 2026-04-28 09:18 | -6.13146 | 106.66699 | 44 ft | 18 kts | 18° |
| 2026-04-28 09:18 | -6.13097 | 106.66759 | 44 ft | 0 kts | 68° |
| 2026-04-28 09:19 | -6.13096 | 106.66761 | 44 ft | 4 kts | 67° |
| 2026-04-28 09:19 | -6.13047 | 106.66879 | 43 ft | 25 kts | 67° |
| 2026-04-28 09:20 | -6.12980 | 106.67047 | 43 ft | 27 kts | 68° |
| 2026-04-28 09:20 | -6.12915 | 106.67211 | 41 ft | 25 kts | 69° |
| 2026-04-28 09:20 | -6.12854 | 106.67370 | 42 ft | 22 kts | 69° |
| 2026-04-28 09:20 | -6.12785 | 106.67510 | 42 ft | 20 kts | 59° |
| 2026-04-28 09:21 | -6.12716 | 106.67628 | 42 ft | 19 kts | 59° |
| 2026-04-28 09:21 | -6.12639 | 106.67746 | 40 ft | 21 kts | 49° |
| 2026-04-28 09:21 | -6.12514 | 106.67833 | 41 ft | 23 kts | 20° |
| 2026-04-28 09:21 | -6.12351 | 106.67849 | 40 ft | 25 kts | 352° |
| 2026-04-28 09:22 | -6.12207 | 106.67803 | 40 ft | 22 kts | 340° |
| 2026-04-28 09:22 | -6.12064 | 106.67745 | 39 ft | 23 kts | 339° |
| 2026-04-28 09:22 | -6.11909 | 106.67683 | 38 ft | 25 kts | 338° |
| 2026-04-28 09:22 | -6.11750 | 106.67620 | 37 ft | 23 kts | 338° |
| 2026-04-28 09:23 | -6.11592 | 106.67557 | 37 ft | 26 kts | 338° |
| 2026-04-28 09:23 | -6.11419 | 106.67491 | 36 ft | 27 kts | 340° |
| 2026-04-28 09:23 | -6.11269 | 106.67432 | 36 ft | 23 kts | 338° |
| 2026-04-28 09:23 | -6.11129 | 106.67371 | 36 ft | 19 kts | 329° |
| 2026-04-28 09:24 | -6.11083 | 106.67257 | 36 ft | 14 kts | 263° |
| 2026-04-28 09:24 | -6.11088 | 106.67231 | 36 ft | 0 kts | 258° |
| 2026-04-28 09:25 | -6.11100 | 106.67179 | 36 ft | 16 kts | 257° |
| 2026-04-28 09:25 | -6.11126 | 106.67062 | 36 ft | 19 kts | 257° |
| 2026-04-28 09:25 | -6.11162 | 106.66949 | 36 ft | 15 kts | 248° |
| 2026-04-28 09:26 | -6.11221 | 106.66876 | 36 ft | 13 kts | 179° |
| 2026-04-28 09:26 | -6.11308 | 106.66902 | 37 ft | 10 kts | 159° |
| 2026-04-28 09:26 | -6.11385 | 106.66932 | 37 ft | 13 kts | 159° |
| 2026-04-28 09:26 | -6.11464 | 106.66915 | 37 ft | 13 kts | 240° |
| 2026-04-28 09:27 | -6.11546 | 106.66709 | 37 ft | 18 kts | 249° |
| 2026-04-28 09:27 | -6.11596 | 106.66581 | 38 ft | 21 kts | 249° |
| 2026-04-28 09:27 | -6.11654 | 106.66442 | 38 ft | 21 kts | 247° |
| 2026-04-28 09:28 | -6.11691 | 106.66357 | 38 ft | 9 kts | 232° |
| 2026-04-28 09:28 | -6.11723 | 106.66357 | 39 ft | 5 kts | 164° |
| 2026-04-28 09:28 | -6.11756 | 106.66369 | 39 ft | 4 kts | 158° |
| 2026-04-28 09:28 | -6.11763 | 106.66372 | 39 ft | 0 kts | 159° |
| 2026-04-28 09:29 | -6.11768 | 106.66374 | 39 ft | 2 kts | 158° |
| 2026-04-28 09:29 | -6.11774 | 106.66377 | 39 ft | 0 kts | 158° |
| 2026-04-28 09:29 | -6.11775 | 106.66377 | 39 ft | 1 kts | 158° |
| 2026-04-28 09:29 | -6.11777 | 106.66378 | 39 ft | 0 kts | 158° |
| 2026-04-28 09:30 | -6.11783 | 106.66380 | 39 ft | 1 kts | 158° |
| 2026-04-28 09:30 | -6.11790 | 106.66383 | 39 ft | 0 kts | 158° |
| 2026-04-28 09:32 | -6.11805 | 106.66389 | 39 ft | 0 kts | 157° |